Peotone Weather
Station Historical Data
Daily Summary for May 17, 2018 Units:  English    Metric   Both
« Previous Day
Next Day »
Daily Weekly Monthly Yearly Custom
  High: Low: Average:
Temperature: 81.8 °F 52.0 °F 63.9 °F
Dew Point: 60.7 °F 45.5 °F 51.9 °F
Humidity: 89% 38% 68%
Wind Speed: 17.2mph 0.0mph 3.8mph
Wind Gust: 18.4mph - -
Wind- - ENE
Pressure: 30.04 in 29.97 in -
Precipitation: 0.00 in    
Historical Graphs
 
 
Tabular Data for May 17, 2018
Time Temperature Dew Point Pressure Wind Wind Speed Wind Gust Humidity Rainfall Rate (Hourly) solar Conditions
00:00 59.8 °F 54.0 °F 29.99 in NE 4.6 mph 4.6 mph 81% 0.00 in 0.00 W/m2
00:05 59.9 °F 54.1 °F 29.99 in Calm     81% 0.00 in 0.00 W/m2
00:10 59.7 °F 53.9 °F 29.99 in Calm     81% 0.00 in 0.00 W/m2
00:15 59.5 °F 54.0 °F 29.99 in NE 2.3 mph 2.3 mph 82% 0.00 in 0.00 W/m2
00:16 59.5 °F 54.0 °F 29.99 in Calm   2.3 mph 82% 0.00 in 0.00 W/m2
00:21 59.1 °F 53.6 °F 29.99 in Calm     82% 0.00 in 0.00 W/m2
00:25 59.3 °F 53.8 °F 29.99 in ENE 2.3 mph 5.8 mph 82% 0.00 in 0.00 W/m2
00:26 59.3 °F 53.8 °F 29.99 in ENE 1.1 mph 2.3 mph 82% 0.00 in 0.00 W/m2
00:30 59.1 °F 53.6 °F 29.99 in Calm   4.6 mph 82% 0.00 in 0.00 W/m2
00:31 59.0 °F 53.5 °F 29.99 in ENE 3.4 mph 4.6 mph 82% 0.00 in 0.00 W/m2
00:35 58.5 °F 53.4 °F 29.99 in ENE 3.5 mph 4.6 mph 83% 0.00 in 0.00 W/m2
00:36 58.4 °F 53.3 °F 29.99 in ENE 2.3 mph 3.4 mph 83% 0.00 in 0.00 W/m2
00:40 57.8 °F 52.7 °F 29.99 in ENE 1.1 mph 3.5 mph 83% 0.00 in 0.00 W/m2
00:41 57.7 °F 52.9 °F 29.99 in Calm   2.3 mph 84% 0.00 in 0.00 W/m2
00:45 57.2 °F 52.7 °F 29.99 in ENE 2.3 mph 3.5 mph 85% 0.00 in 0.00 W/m2
00:46 57.1 °F 52.6 °F 29.99 in ENE 3.4 mph 4.6 mph 85% 0.00 in 0.00 W/m2
00:50 56.9 °F 52.4 °F 29.99 in ENE 3.5 mph 4.6 mph 85% 0.00 in 0.00 W/m2
00:51 56.9 °F 52.4 °F 29.99 in ENE 3.4 mph 5.8 mph 85% 0.00 in 0.00 W/m2
00:52 57.1 °F 53.0 °F 29.99 in Calm   5.8 mph 86% 0.00 in 0.00 W/m2
00:55 57.0 °F 52.9 °F 29.99 in Calm   5.8 mph 86% 0.00 in 0.00 W/m2
00:57 56.9 °F 52.8 °F 29.99 in Calm     86% 0.00 in 0.00 W/m2
01:00 56.8 °F 52.7 °F 29.99 in ENE 1.1 mph 2.3 mph 86% 0.00 in 0.00 W/m2
01:02 56.7 °F 52.6 °F 29.99 in Calm   1.1 mph 86% 0.00 in 0.00 W/m2
01:05 56.6 °F 52.5 °F 29.99 in Calm   1.1 mph 86% 0.00 in 0.00 W/m2
01:07 56.6 °F 52.8 °F 29.99 in Calm     87% 0.00 in 0.00 W/m2
01:10 56.5 °F 52.7 °F 29.99 in Calm   1.1 mph 87% 0.00 in 0.00 W/m2
01:13 56.5 °F 52.7 °F 29.99 in Calm   1.1 mph 87% 0.00 in 0.00 W/m2
01:15 56.4 °F 52.6 °F 29.99 in Calm   1.1 mph 87% 0.00 in 0.00 W/m2
01:18 56.4 °F 52.9 °F 29.99 in Calm   2.3 mph 88% 0.00 in 0.00 W/m2
01:20 56.4 °F 52.9 °F 29.99 in Calm   2.3 mph 88% 0.00 in 0.00 W/m2
01:23 56.4 °F 52.9 °F 29.99 in Calm     88% 0.00 in 0.00 W/m2
01:25 56.4 °F 52.9 °F 29.99 in Calm     88% 0.00 in 0.00 W/m2
01:28 56.4 °F 52.9 °F 29.99 in Calm     88% 0.00 in 0.00 W/m2
01:30 56.5 °F 53.0 °F 29.99 in Calm     88% 0.00 in 0.00 W/m2
01:33 56.5 °F 53.0 °F 29.99 in Calm     88% 0.00 in 0.00 W/m2
01:38 56.5 °F 53.0 °F 29.99 in Calm     88% 0.00 in 0.00 W/m2
01:40 56.4 °F 52.9 °F 29.99 in Calm     88% 0.00 in 0.00 W/m2
01:43 56.3 °F 52.8 °F 29.99 in Calm     88% 0.00 in 0.00 W/m2
01:45 56.0 °F 52.5 °F 29.99 in Calm     88% 0.00 in 0.00 W/m2
01:48 55.8 °F 52.3 °F 29.99 in Calm     88% 0.00 in 0.00 W/m2
01:50 56.0 °F 52.8 °F 29.99 in Calm     89% 0.00 in 0.00 W/m2
01:53 55.8 °F 52.3 °F 29.99 in Calm     88% 0.00 in 0.00 W/m2
01:55 55.8 °F 52.3 °F 29.98 in Calm   1.1 mph 88% 0.00 in 0.00 W/m2
01:58 55.9 °F 52.4 °F 29.98 in Calm   1.1 mph 88% 0.00 in 0.00 W/m2
02:00 55.9 °F 52.4 °F 29.98 in Calm   1.1 mph 88% 0.00 in 0.00 W/m2
02:03 55.8 °F 52.3 °F 29.99 in Calm     88% 0.00 in 0.00 W/m2
02:05 56.0 °F 52.5 °F 29.98 in Calm     88% 0.00 in 0.00 W/m2
02:08 55.9 °F 52.1 °F 29.98 in Calm     87% 0.00 in 0.00 W/m2
02:10 55.9 °F 52.4 °F 29.98 in Calm     88% 0.00 in 0.00 W/m2
02:14 56.1 °F 52.6 °F 29.98 in Calm     88% 0.00 in 0.00 W/m2
02:15 56.0 °F 52.2 °F 29.98 in Calm     87% 0.00 in 0.00 W/m2
02:19 56.0 °F 52.2 °F 29.98 in Calm     87% 0.00 in 0.00 W/m2
02:20 55.9 °F 52.1 °F 29.98 in Calm     87% 0.00 in 0.00 W/m2
02:24 56.0 °F 51.9 °F 29.98 in Calm     86% 0.00 in 0.00 W/m2
02:25 55.9 °F 51.8 °F 29.98 in Calm     86% 0.00 in 0.00 W/m2
02:29 55.7 °F 51.6 °F 29.98 in Calm     86% 0.00 in 0.00 W/m2
02:30 55.6 °F 51.5 °F 29.97 in Calm     86% 0.00 in 0.00 W/m2
02:34 55.7 °F 51.9 °F 29.97 in Calm     87% 0.00 in 0.00 W/m2
02:35 55.9 °F 51.8 °F 29.97 in Calm     86% 0.00 in 0.00 W/m2
02:39 56.1 °F 51.3 °F 29.98 in Calm     84% 0.00 in 0.00 W/m2
02:40 56.1 °F 51.3 °F 29.97 in Calm     84% 0.00 in 0.00 W/m2
02:44 56.0 °F 51.2 °F 29.98 in Calm     84% 0.00 in 0.00 W/m2
02:45 56.2 °F 51.4 °F 29.98 in Calm     84% 0.00 in 0.00 W/m2
02:49 56.4 °F 51.3 °F 29.98 in Calm     83% 0.00 in 0.00 W/m2
02:50 56.6 °F 51.5 °F 29.98 in Calm     83% 0.00 in 0.00 W/m2
02:54 56.4 °F 51.0 °F 29.98 in Calm     82% 0.00 in 0.00 W/m2
02:55 56.2 °F 50.8 °F 29.98 in Calm     82% 0.00 in 0.00 W/m2
02:59 56.0 °F 50.6 °F 29.97 in ENE 1.1 mph 2.3 mph 82% 0.00 in 0.00 W/m2
03:04 56.2 °F 50.1 °F 29.97 in Calm   1.1 mph 80% 0.00 in 0.00 W/m2
03:09 56.3 °F 49.9 °F 29.97 in Calm     79% 0.00 in 0.00 W/m2
03:14 55.8 °F 49.7 °F 29.97 in Calm     80% 0.00 in 0.00 W/m2
03:19 55.7 °F 50.0 °F 29.97 in ENE 1.1 mph 1.1 mph 81% 0.00 in 0.00 W/m2
03:25 55.6 °F 49.5 °F 29.97 in Calm     80% 0.00 in 0.00 W/m2
03:30 55.4 °F 49.7 °F 29.97 in Calm   1.1 mph 81% 0.00 in 0.00 W/m2
03:35 55.5 °F 49.1 °F 29.97 in Calm     79% 0.00 in 0.00 W/m2
03:40 55.0 °F 49.3 °F 29.97 in Calm     81% 0.00 in 0.00 W/m2
03:45 54.8 °F 49.4 °F 29.97 in Calm     82% 0.00 in 0.00 W/m2
03:50 55.0 °F 49.3 °F 29.97 in Calm   2.3 mph 81% 0.00 in 0.00 W/m2
03:55 54.7 °F 49.3 °F 29.97 in Calm   2.3 mph 82% 0.00 in 0.00 W/m2
04:00 54.9 °F 49.2 °F 29.97 in Calm   2.3 mph 81% 0.00 in 0.00 W/m2
04:05 55.1 °F 49.0 °F 29.98 in Calm   2.3 mph 80% 0.00 in 0.00 W/m2
04:10 55.3 °F 48.9 °F 29.97 in Calm     79% 0.00 in 0.00 W/m2
04:15 55.4 °F 49.0 °F 29.98 in Calm     79% 0.00 in 0.00 W/m2
04:20 55.4 °F 49.0 °F 29.98 in Calm   1.1 mph 79% 0.00 in 0.00 W/m2
04:25 55.7 °F 49.0 °F 29.98 in Calm     78% 0.00 in 0.00 W/m2
04:30 55.5 °F 48.8 °F 29.98 in Calm     78% 0.00 in 0.00 W/m2
04:35 55.1 °F 49.0 °F 29.98 in Calm     80% 0.00 in 0.00 W/m2
04:40 55.2 °F 48.8 °F 29.99 in Calm     79% 0.00 in 0.00 W/m2
04:45 55.2 °F 48.5 °F 29.99 in Calm     78% 0.00 in 0.00 W/m2
04:51 55.0 °F 48.6 °F 29.99 in Calm     79% 0.00 in 0.00 W/m2
04:56 54.8 °F 48.4 °F 29.99 in Calm     79% 0.00 in 0.00 W/m2
05:01 55.0 °F 49.3 °F 29.99 in Calm     81% 0.00 in 0.00 W/m2
05:06 55.0 °F 49.3 °F 29.99 in Calm     81% 0.00 in 0.00 W/m2
05:11 54.6 °F 49.2 °F 29.99 in ENE 2.3 mph 2.3 mph 82% 0.00 in 0.00 W/m2
05:16 54.3 °F 49.3 °F 29.99 in Calm     83% 0.00 in 0.00 W/m2
05:21 53.9 °F 48.9 °F 29.99 in Calm     83% 0.00 in 0.00 W/m2
05:26 53.9 °F 48.9 °F 29.99 in Calm     83% 0.00 in 5.00 W/m2
05:31 54.0 °F 48.6 °F 29.99 in Calm     82% 0.00 in 5.00 W/m2
05:36 53.9 °F 48.5 °F 29.99 in Calm     82% 0.00 in 9.00 W/m2
05:41 54.0 °F 48.6 °F 30.00 in ENE 1.1 mph 1.1 mph 82% 0.00 in 12.00 W/m2
05:46 54.1 °F 48.7 °F 30.00 in Calm     82% 0.00 in 18.00 W/m2
05:51 54.2 °F 48.8 °F 30.00 in Calm   2.3 mph 82% 0.00 in 23.00 W/m2
05:57 54.3 °F 48.9 °F 30.00 in Calm     82% 0.00 in 25.00 W/m2
06:02 54.5 °F 49.5 °F 30.00 in Calm   2.3 mph 83% 0.00 in 28.00 W/m2
06:07 54.8 °F 49.4 °F 30.00 in Calm   2.3 mph 82% 0.00 in 32.00 W/m2
06:12 55.2 °F 49.5 °F 30.00 in Calm     81% 0.00 in 37.00 W/m2
06:17 55.7 °F 50.0 °F 30.00 in Calm     81% 0.00 in 44.00 W/m2
06:22 56.1 °F 50.0 °F 30.00 in ENE 1.1 mph 2.3 mph 80% 0.00 in 46.00 W/m2
06:27 56.4 °F 50.3 °F 30.00 in Calm     80% 0.00 in 65.00 W/m2
06:32 56.6 °F 50.8 °F 30.00 in Calm     81% 0.00 in 67.00 W/m2
06:37 57.0 °F 51.2 °F 30.00 in Calm   1.1 mph 81% 0.00 in 102.00 W/m2
06:42 57.6 °F 51.8 °F 30.00 in Calm   1.1 mph 81% 0.00 in 155.00 W/m2
06:47 58.4 °F 52.3 °F 30.01 in ENE 1.1 mph 2.3 mph 80% 0.00 in 179.00 W/m2
06:52 59.3 °F 52.8 °F 30.01 in Calm   2.3 mph 79% 0.00 in 178.00 W/m2
06:57 60.5 °F 53.3 °F 30.01 in Calm   1.1 mph 77% 0.00 in 200.00 W/m2
07:03 61.0 °F 54.1 °F 30.01 in ENE 2.3 mph 3.4 mph 78% 0.00 in 223.00 W/m2
07:08 62.9 °F 54.1 °F 30.01 in Calm   1.1 mph 73% 0.00 in 223.00 W/m2
07:13 64.2 °F 54.2 °F 30.01 in Calm   2.3 mph 70% 0.00 in 234.00 W/m2
07:18 64.6 °F 54.6 °F 30.01 in Calm   2.3 mph 70% 0.00 in 200.00 W/m2
07:23 65.1 °F 53.5 °F 30.01 in Calm   2.3 mph 66% 0.00 in 236.00 W/m2
07:28 65.5 °F 54.3 °F 30.01 in ENE 3.4 mph 3.4 mph 67% 0.00 in 211.00 W/m2
07:33 65.4 °F 55.4 °F 30.01 in Calm   2.3 mph 70% 0.00 in 262.00 W/m2
07:38 65.4 °F 56.2 °F 30.01 in Calm     72% 0.00 in 330.00 W/m2
07:43 66.2 °F 56.1 °F 30.02 in Calm     70% 0.00 in 276.00 W/m2
07:48 67.0 °F 56.1 °F 30.02 in Calm     68% 0.00 in 267.00 W/m2
07:53 67.3 °F 56.0 °F 30.02 in Calm   1.1 mph 67% 0.00 in 309.00 W/m2
07:58 67.2 °F 57.1 °F 30.02 in Calm   2.3 mph 70% 0.00 in 346.00 W/m2
08:04 68.0 °F 57.1 °F 30.02 in Calm     68% 0.00 in 388.00 W/m2
08:09 68.7 °F 58.1 °F 30.02 in Calm     69% 0.00 in 390.00 W/m2
08:14 69.1 °F 58.1 °F 30.02 in Calm     68% 0.00 in 290.00 W/m2
08:19 69.5 °F 57.7 °F 30.02 in Calm     66% 0.00 in 357.00 W/m2
08:24 70.1 °F 58.2 °F 30.02 in Calm     66% 0.00 in 338.00 W/m2
08:29 70.2 °F 58.7 °F 30.02 in Calm     67% 0.00 in 338.00 W/m2
08:34 70.7 °F 58.8 °F 30.02 in Calm     66% 0.00 in 385.00 W/m2
08:39 71.1 °F 58.3 °F 30.02 in Calm     64% 0.00 in 397.00 W/m2
08:44 71.1 °F 58.3 °F 30.02 in NE 2.3 mph 4.6 mph 64% 0.00 in 378.00 W/m2
08:49 71.7 °F 59.3 °F 30.02 in NE 2.3 mph 3.4 mph 65% 0.00 in 429.00 W/m2
08:54 72.1 °F 59.7 °F 30.03 in Calm   2.3 mph 65% 0.00 in 469.00 W/m2
08:59 72.8 °F 59.9 °F 30.03 in NE 2.3 mph 3.4 mph 64% 0.00 in 490.00 W/m2
09:04 73.1 °F 60.7 °F 30.03 in Calm   2.3 mph 65% 0.00 in 520.00 W/m2
09:10 73.8 °F 60.0 °F 30.03 in Calm   4.6 mph 62% 0.00 in 471.00 W/m2
09:15 74.3 °F 60.0 °F 30.03 in Calm   2.3 mph 61% 0.00 in 427.00 W/m2
09:20 74.4 °F 59.2 °F 30.03 in ENE 2.3 mph 4.6 mph 59% 0.00 in 503.00 W/m2
09:25 74.5 °F 59.7 °F 30.03 in Calm   3.4 mph 60% 0.00 in 555.00 W/m2
09:30 74.9 °F 58.7 °F 30.03 in Calm   8.1 mph 57% 0.00 in 668.00 W/m2
09:35 76.1 °F 59.3 °F 30.03 in NE 5.8 mph 9.2 mph 56% 0.00 in 677.00 W/m2
09:40 76.3 °F 60.0 °F 30.03 in Calm   10.3 mph 57% 0.00 in 619.00 W/m2
09:45 76.2 °F 57.8 °F 30.03 in NE 5.8 mph 8.1 mph 53% 0.00 in 485.00 W/m2
09:50 76.0 °F 56.6 °F 30.03 in NE 4.6 mph 10.3 mph 51% 0.00 in 519.00 W/m2
09:55 76.0 °F 56.0 °F 30.03 in East 5.8 mph 11.5 mph 50% 0.00 in 599.00 W/m2
10:00 76.9 °F 58.0 °F 30.03 in ENE 3.4 mph 9.2 mph 52% 0.00 in 668.00 W/m2
10:05 77.3 °F 56.1 °F 30.03 in ENE 1.1 mph 5.8 mph 48% 0.00 in 740.00 W/m2
10:10 77.5 °F 55.7 °F 30.03 in North 8.1 mph 12.6 mph 47% 0.00 in 833.00 W/m2
10:16 77.8 °F 56.0 °F 30.03 in NE 4.6 mph 4.6 mph 47% 0.00 in 849.00 W/m2
10:21 78.0 °F 56.2 °F 30.03 in NE 6.9 mph 11.5 mph 47% 0.00 in 791.00 W/m2
10:26 77.6 °F 55.8 °F 30.03 in NE 3.4 mph 6.9 mph 47% 0.00 in 640.00 W/m2
10:31 77.9 °F 55.5 °F 30.03 in Calm   3.4 mph 46% 0.00 in 821.00 W/m2
10:36 78.1 °F 56.8 °F 30.03 in ENE 9.2 mph 13.8 mph 48% 0.00 in 826.00 W/m2
10:41 78.9 °F 55.8 °F 30.03 in NE 5.8 mph 10.3 mph 45% 0.00 in 826.00 W/m2
10:46 78.7 °F 55.0 °F 30.03 in NE 3.4 mph 9.2 mph 44% 0.00 in 823.00 W/m2
10:51 79.2 °F 55.4 °F 30.03 in NE 3.4 mph 6.9 mph 44% 0.00 in 788.00 W/m2
10:56 79.1 °F 54.7 °F 30.03 in NE 6.9 mph 8.1 mph 43% 0.00 in 821.00 W/m2
11:01 79.1 °F 56.6 °F 30.03 in East 11.5 mph 11.5 mph 46% 0.00 in 705.00 W/m2
11:06 79.1 °F 57.2 °F 30.03 in ENE 8.1 mph 12.6 mph 47% 0.00 in 779.00 W/m2
11:11 79.8 °F 56.6 °F 30.03 in ENE 4.6 mph 9.2 mph 45% 0.00 in 810.00 W/m2
11:16 78.6 °F 54.3 °F 30.03 in NNE 4.6 mph 6.9 mph 43% 0.00 in 752.00 W/m2
11:21 78.7 °F 56.8 °F 30.03 in ENE 9.2 mph 10.3 mph 47% 0.00 in 733.00 W/m2
11:26 78.9 °F 55.2 °F 30.03 in ENE 4.6 mph 9.2 mph 44% 0.00 in 772.00 W/m2
11:31 78.7 °F 55.0 °F 30.03 in NE 5.8 mph 8.1 mph 44% 0.00 in 613.00 W/m2
11:36 79.8 °F 56.6 °F 30.03 in East 8.1 mph 8.1 mph 45% 0.00 in 914.00 W/m2
11:41 80.4 °F 57.1 °F 30.03 in NNE 5.8 mph 11.5 mph 45% 0.00 in 923.00 W/m2
11:46 79.8 °F 54.7 °F 30.03 in NE 13.8 mph 13.8 mph 42% 0.00 in 970.00 W/m2
11:51 80.7 °F 56.2 °F 30.02 in NNE 5.8 mph 10.3 mph 43% 0.00 in 953.00 W/m2
11:56 80.7 °F 53.5 °F 30.02 in NNE 5.8 mph 6.9 mph 39% 0.00 in 1002.00 W/m2
12:01 81.6 °F 55.6 °F 30.03 in North 10.3 mph 12.6 mph 41% 0.00 in 1025.00 W/m2
12:06 80.4 °F 53.9 °F 30.03 in NE 2.3 mph 9.2 mph 40% 0.00 in 817.00 W/m2
12:12 80.2 °F 55.0 °F 30.02 in NNE 11.5 mph 11.5 mph 42% 0.00 in 824.00 W/m2
12:17 80.0 °F 54.9 °F 30.02 in NE 11.5 mph 13.8 mph 42% 0.00 in 921.00 W/m2
12:22 80.8 °F 54.9 °F 30.02 in NE 3.4 mph 12.6 mph 41% 0.00 in 965.00 W/m2
12:27 79.7 °F 53.9 °F 30.02 in NNE 12.6 mph 12.6 mph 41% 0.00 in 693.00 W/m2
12:32 79.9 °F 55.4 °F 30.02 in ENE 9.2 mph 12.6 mph 43% 0.00 in 726.00 W/m2
12:37 79.3 °F 54.9 °F 30.02 in NE 9.2 mph 12.6 mph 43% 0.00 in 671.00 W/m2
12:42 79.3 °F 53.6 °F 30.02 in NE 11.5 mph 16.1 mph 41% 0.00 in 594.00 W/m2
12:47 79.1 °F 54.7 °F 30.02 in ENE 4.6 mph 10.3 mph 43% 0.00 in 749.00 W/m2
12:52 79.8 °F 54.0 °F 30.02 in ENE 5.8 mph 11.5 mph 41% 0.00 in 798.00 W/m2
12:57 80.3 °F 54.5 °F 30.02 in NE 6.9 mph 14.9 mph 41% 0.00 in 791.00 W/m2
13:02 79.7 °F 53.3 °F 30.02 in NE 4.6 mph 12.6 mph 40% 0.00 in 879.00 W/m2
13:04 79.8 °F 54.0 °F 30.02 in NNE 4.6 mph 13.8 mph 41% 0.00 in 969.00 W/m2
13:09 80.8 °F 55.6 °F 30.01 in NNE 12.6 mph 12.6 mph 42% 0.00 in 930.00 W/m2
13:14 80.5 °F 54.7 °F 30.01 in ENE 2.3 mph 12.6 mph 41% 0.00 in 788.00 W/m2
13:19 80.1 °F 54.3 °F 30.01 in NE 11.5 mph 11.5 mph 41% 0.00 in 541.00 W/m2
13:24 79.6 °F 55.2 °F 30.01 in East 3.4 mph 17.2 mph 43% 0.00 in 512.00 W/m2
13:29 80.3 °F 57.0 °F 30.01 in NNE 2.3 mph 12.6 mph 45% 0.00 in 986.00 W/m2
13:34 80.4 °F 56.5 °F 30.01 in NE 8.1 mph 17.2 mph 44% 0.00 in 765.00 W/m2
13:39 81.8 °F 56.5 °F 30.01 in ENE 5.8 mph 18.4 mph 42% 0.00 in 1002.00 W/m2
13:44 81.2 °F 55.3 °F 30.01 in NNE 10.3 mph 13.8 mph 41% 0.00 in 656.00 W/m2
13:49 80.0 °F 53.5 °F 30.01 in NE 4.6 mph 14.9 mph 40% 0.00 in 504.00 W/m2
13:55 80.3 °F 53.8 °F 30.01 in NNE 5.8 mph 13.8 mph 40% 0.00 in 940.00 W/m2
14:00 81.5 °F 56.2 °F 30.00 in NE 3.4 mph 11.5 mph 42% 0.00 in 1002.00 W/m2
14:05 81.0 °F 53.7 °F 30.00 in NE 10.3 mph 13.8 mph 39% 0.00 in 826.00 W/m2
14:10 80.6 °F 54.1 °F 30.00 in ENE 10.3 mph 11.5 mph 40% 0.00 in 902.00 W/m2
14:15 80.9 °F 55.0 °F 30.00 in NE 8.1 mph 18.4 mph 41% 0.00 in 877.00 W/m2
14:20 80.7 °F 56.2 °F 30.00 in NNE 5.8 mph 12.6 mph 43% 0.00 in 933.00 W/m2
14:25 81.2 °F 56.6 °F 30.00 in NNE 3.4 mph 13.8 mph 43% 0.00 in 775.00 W/m2
14:30 80.6 °F 52.7 °F 30.00 in NNE 13.8 mph 17.2 mph 38% 0.00 in 759.00 W/m2
14:35 80.8 °F 54.9 °F 30.00 in NE 1.1 mph 16.1 mph 41% 0.00 in 740.00 W/m2
14:40 80.3 °F 53.8 °F 30.00 in NE 8.1 mph 9.2 mph 40% 0.00 in 708.00 W/m2
14:45 79.3 °F 52.9 °F 30.00 in ENE 8.1 mph 11.5 mph 40% 0.00 in 694.00 W/m2
14:50 79.3 °F 54.9 °F 30.00 in NNE 11.5 mph 12.6 mph 43% 0.00 in 707.00 W/m2
14:56 79.2 °F 53.5 °F 30.00 in NNE 5.8 mph 12.6 mph 41% 0.00 in 803.00 W/m2
15:01 79.3 °F 55.5 °F 30.00 in North 8.1 mph 14.9 mph 44% 0.00 in 733.00 W/m2
15:06 78.8 °F 54.4 °F 30.00 in NNE 6.9 mph 9.2 mph 43% 0.00 in 564.00 W/m2
15:11 76.9 °F 53.3 °F 30.00 in NE 2.3 mph 8.1 mph 44% 0.00 in 684.00 W/m2
15:16 77.4 °F 55.6 °F 30.00 in Calm   9.2 mph 47% 0.00 in 666.00 W/m2
15:21 77.6 °F 55.2 °F 30.00 in North 10.3 mph 10.3 mph 46% 0.00 in 640.00 W/m2
15:26 76.2 °F 53.3 °F 30.00 in NE 3.4 mph 12.6 mph 45% 0.00 in 580.00 W/m2
15:31 75.7 °F 52.9 °F 30.00 in NE 5.8 mph 13.8 mph 45% 0.00 in 745.00 W/m2
15:36 76.0 °F 51.9 °F 30.00 in NE 11.5 mph 14.9 mph 43% 0.00 in 696.00 W/m2
15:41 75.2 °F 53.0 °F 30.00 in ENE 12.6 mph 12.6 mph 46% 0.00 in 548.00 W/m2
15:46 74.7 °F 52.0 °F 30.00 in NE 4.6 mph 11.5 mph 45% 0.00 in 520.00 W/m2
15:51 73.8 °F 52.3 °F 30.00 in NE 8.1 mph 12.6 mph 47% 0.00 in 446.00 W/m2
15:56 73.5 °F 52.1 °F 30.00 in North 3.4 mph 9.2 mph 47% 0.00 in 531.00 W/m2
16:02 72.8 °F 50.2 °F 30.00 in ENE 9.2 mph 17.2 mph 45% 0.00 in 399.00 W/m2
16:07 71.7 °F 49.8 °F 30.00 in NE 12.6 mph 14.9 mph 46% 0.00 in 490.00 W/m2
16:12 71.8 °F 50.5 °F 30.00 in NNE 4.6 mph 17.2 mph 47% 0.00 in 566.00 W/m2
16:17 71.5 °F 51.4 °F 30.00 in NNE 9.2 mph 14.9 mph 49% 0.00 in 571.00 W/m2
16:22 71.3 °F 51.2 °F 30.00 in NE 6.9 mph 16.1 mph 49% 0.00 in 561.00 W/m2
16:27 71.3 °F 52.3 °F 30.00 in NNE 6.9 mph 13.8 mph 51% 0.00 in 380.00 W/m2
16:32 70.7 °F 51.7 °F 30.00 in NNW 5.8 mph 9.2 mph 51% 0.00 in 381.00 W/m2
16:37 70.4 °F 52.0 °F 30.00 in ENE 4.6 mph 16.1 mph 52% 0.00 in 327.00 W/m2
16:42 70.1 °F 51.2 °F 30.00 in NE 11.5 mph 14.9 mph 51% 0.00 in 570.00 W/m2
16:47 70.4 °F 53.0 °F 30.00 in NNE 10.3 mph 12.6 mph 54% 0.00 in 480.00 W/m2
16:52 70.3 °F 52.9 °F 30.00 in NNE 6.9 mph 10.3 mph 54% 0.00 in 499.00 W/m2
16:57 69.8 °F 51.9 °F 30.00 in NE 10.3 mph 17.2 mph 53% 0.00 in 471.00 W/m2
17:02 69.4 °F 52.0 °F 30.00 in NE 10.3 mph 16.1 mph 54% 0.00 in 483.00 W/m2
17:08 69.9 °F 52.5 °F 30.00 in NNE 8.1 mph 12.6 mph 54% 0.00 in 427.00 W/m2
17:13 69.7 °F 52.8 °F 30.00 in NNE 11.5 mph 14.9 mph 55% 0.00 in 473.00 W/m2
17:18 70.3 °F 53.4 °F 30.00 in North 4.6 mph 12.6 mph 55% 0.00 in 422.00 W/m2
17:23 70.6 °F 53.2 °F 30.00 in Calm   12.6 mph 54% 0.00 in 459.00 W/m2
17:28 69.3 °F 52.0 °F 30.00 in NNE 2.3 mph 12.6 mph 54% 0.00 in 327.00 W/m2
17:33 67.9 °F 51.2 °F 30.00 in NE 6.9 mph 14.9 mph 55% 0.00 in 311.00 W/m2
17:38 67.3 °F 51.1 °F 30.00 in NNE 5.8 mph 18.4 mph 56% 0.00 in 334.00 W/m2
17:43 67.3 °F 51.6 °F 30.00 in NW 4.6 mph 14.9 mph 57% 0.00 in 373.00 W/m2
17:48 67.3 °F 52.5 °F 30.00 in NE 11.5 mph 13.8 mph 59% 0.00 in 294.00 W/m2
17:50 67.0 °F 51.3 °F 30.00 in North 10.3 mph 10.3 mph 57% 0.00 in 287.00 W/m2
17:55 66.3 °F 51.6 °F 30.00 in Calm     59% 0.00 in 287.00 W/m2
18:01 66.2 °F 51.9 °F 30.00 in North 12.6 mph 13.8 mph 60% 0.00 in 313.00 W/m2
18:06 65.3 °F 51.1 °F 30.00 in ENE 11.5 mph 16.1 mph 60% 0.00 in 271.00 W/m2
18:11 65.0 °F 51.2 °F 30.00 in NE 17.2 mph 17.2 mph 61% 0.00 in 202.00 W/m2
18:16 64.8 °F 51.0 °F 30.00 in NE 10.3 mph 11.5 mph 61% 0.00 in 162.00 W/m2
18:21 64.5 °F 50.8 °F 30.00 in NE 11.5 mph 18.4 mph 61% 0.00 in 116.00 W/m2
18:26 63.8 °F 49.7 °F 30.00 in NE 4.6 mph 12.6 mph 60% 0.00 in 160.00 W/m2
18:31 63.2 °F 49.5 °F 30.01 in NNE 2.3 mph 5.8 mph 61% 0.00 in 165.00 W/m2
18:36 63.0 °F 49.8 °F 30.01 in NNE 10.3 mph 16.1 mph 62% 0.00 in 142.00 W/m2
18:41 62.3 °F 49.6 °F 30.01 in NE 6.9 mph 12.6 mph 63% 0.00 in 111.00 W/m2
18:46 61.8 °F 49.5 °F 30.01 in NNE 6.9 mph 17.2 mph 64% 0.00 in 81.00 W/m2
18:51 61.4 °F 49.1 °F 30.01 in ENE 10.3 mph 11.5 mph 64% 0.00 in 72.00 W/m2
18:56 61.1 °F 49.3 °F 30.01 in NNE 4.6 mph 12.6 mph 65% 0.00 in 65.00 W/m2
19:01 60.6 °F 48.4 °F 30.01 in NE 9.2 mph 12.6 mph 64% 0.00 in 62.00 W/m2
19:06 60.1 °F 48.3 °F 30.01 in NE 4.6 mph 12.6 mph 65% 0.00 in 56.00 W/m2
19:12 59.7 °F 48.3 °F 30.01 in NNE 1.1 mph 10.3 mph 66% 0.00 in 51.00 W/m2
19:17 59.1 °F 47.8 °F 30.01 in NE 5.8 mph 9.2 mph 66% 0.00 in 46.00 W/m2
19:22 58.4 °F 47.5 °F 30.02 in NNE 3.4 mph 8.1 mph 67% 0.00 in 40.00 W/m2
19:27 58.1 °F 47.6 °F 30.02 in NNE 4.6 mph 14.9 mph 68% 0.00 in 39.00 W/m2
19:32 57.8 °F 47.7 °F 30.02 in NE 6.9 mph 11.5 mph 69% 0.00 in 35.00 W/m2
19:37 57.3 °F 47.2 °F 30.02 in NNE 9.2 mph 14.9 mph 69% 0.00 in 28.00 W/m2
19:42 56.8 °F 47.1 °F 30.03 in NE 9.2 mph 13.8 mph 70% 0.00 in 21.00 W/m2
19:47 56.3 °F 46.7 °F 30.03 in NE 2.3 mph 12.6 mph 70% 0.00 in 14.00 W/m2
19:52 56.0 °F 46.7 °F 30.03 in ENE 8.1 mph 16.1 mph 71% 0.00 in 11.00 W/m2
19:57 55.7 °F 46.5 °F 30.03 in NE 6.9 mph 13.8 mph 71% 0.00 in 5.00 W/m2
20:02 55.4 °F 46.2 °F 30.03 in NNE 8.1 mph 11.5 mph 71% 0.00 in 0.00 W/m2
20:07 55.1 °F 45.9 °F 30.03 in NNE 6.9 mph 11.5 mph 71% 0.00 in 0.00 W/m2
20:12 54.8 °F 46.0 °F 30.03 in NNE 3.4 mph 11.5 mph 72% 0.00 in 0.00 W/m2
20:18 54.6 °F 45.8 °F 30.03 in NNE 6.9 mph 14.9 mph 72% 0.00 in 0.00 W/m2
20:23 54.4 °F 45.9 °F 30.03 in NNW 6.9 mph 12.6 mph 73% 0.00 in 0.00 W/m2
20:28 54.2 °F 45.8 °F 30.03 in NNE 8.1 mph 11.5 mph 73% 0.00 in 0.00 W/m2
20:33 54.1 °F 45.7 °F 30.03 in NE 5.8 mph 10.3 mph 73% 0.00 in 0.00 W/m2
20:38 54.0 °F 45.9 °F 30.03 in NE 6.9 mph 16.1 mph 74% 0.00 in 0.00 W/m2
20:43 54.1 °F 45.7 °F 30.03 in NE 9.2 mph 14.9 mph 73% 0.00 in 0.00 W/m2
20:48 53.9 °F 45.8 °F 30.03 in NNE 3.4 mph 10.3 mph 74% 0.00 in 0.00 W/m2
20:53 53.9 °F 45.8 °F 30.03 in NE 8.1 mph 9.2 mph 74% 0.00 in 0.00 W/m2
20:58 53.9 °F 45.8 °F 30.03 in NE 2.3 mph 8.1 mph 74% 0.00 in 0.00 W/m2
21:03 53.8 °F 45.7 °F 30.03 in NNE 5.8 mph 10.3 mph 74% 0.00 in 0.00 W/m2
21:08 53.7 °F 45.6 °F 30.03 in NNE 8.1 mph 13.8 mph 74% 0.00 in 0.00 W/m2
21:13 53.7 °F 45.6 °F 30.03 in North 4.6 mph 10.3 mph 74% 0.00 in 0.00 W/m2
21:19 53.6 °F 45.5 °F 30.03 in NE 2.3 mph 10.3 mph 74% 0.00 in 0.00 W/m2
21:24 53.6 °F 45.5 °F 30.03 in NE 1.1 mph 11.5 mph 74% 0.00 in 0.00 W/m2
21:29 53.4 °F 45.7 °F 30.03 in NE 6.9 mph 11.5 mph 75% 0.00 in 0.00 W/m2
21:34 53.4 °F 45.7 °F 30.03 in NE 1.1 mph 11.5 mph 75% 0.00 in 0.00 W/m2
21:39 53.3 °F 45.9 °F 30.03 in NE 10.3 mph 17.2 mph 76% 0.00 in 0.00 W/m2
21:44 53.2 °F 45.8 °F 30.03 in NE 10.3 mph 12.6 mph 76% 0.00 in 0.00 W/m2
21:49 53.1 °F 46.1 °F 30.03 in NNE 8.1 mph 9.2 mph 77% 0.00 in 0.00 W/m2
21:54 53.0 °F 46.0 °F 30.03 in NNW 11.5 mph 14.9 mph 77% 0.00 in 0.00 W/m2
21:59 53.0 °F 46.0 °F 30.03 in NE 5.8 mph 12.6 mph 77% 0.00 in 0.00 W/m2
22:04 52.8 °F 45.8 °F 30.04 in North 6.9 mph 16.1 mph 77% 0.00 in 0.00 W/m2
22:09 52.7 °F 46.0 °F 30.04 in NNE 1.1 mph 9.2 mph 78% 0.00 in 0.00 W/m2
22:14 52.5 °F 45.8 °F 30.04 in NE 5.8 mph 12.6 mph 78% 0.00 in 0.00 W/m2
22:20 52.7 °F 46.4 °F 30.04 in NE 4.6 mph 14.9 mph 79% 0.00 in 0.00 W/m2
22:25 52.6 °F 46.0 °F 30.04 in ENE 8.1 mph 10.3 mph 78% 0.00 in 0.00 W/m2
22:30 52.3 °F 46.0 °F 30.04 in East 5.8 mph 10.3 mph 79% 0.00 in 0.00 W/m2
22:35 52.1 °F 45.8 °F 30.03 in NE 9.2 mph 16.1 mph 79% 0.00 in 0.00 W/m2
22:40 52.0 °F 46.0 °F 30.03 in ENE 3.4 mph 14.9 mph 80% 0.00 in 0.00 W/m2
22:45 52.3 °F 46.3 °F 30.03 in NNE 8.1 mph 11.5 mph 80% 0.00 in 0.00 W/m2
22:50 52.3 °F 46.7 °F 30.03 in NNE 4.6 mph 10.3 mph 81% 0.00 in 0.00 W/m2
22:55 52.2 °F 46.5 °F 30.03 in NE 3.4 mph 12.6 mph 81% 0.00 in 0.00 W/m2
23:00 52.3 °F 46.7 °F 30.03 in NE 4.6 mph 11.5 mph 81% 0.00 in 0.00 W/m2
23:05 52.6 °F 47.3 °F 30.03 in ENE 3.4 mph 18.4 mph 82% 0.00 in 0.00 W/m2
23:10 52.8 °F 47.1 °F 30.03 in ENE 9.2 mph 11.5 mph 81% 0.00 in 0.00 W/m2
23:15 52.8 °F 47.1 °F 30.03 in NE 4.6 mph 11.5 mph 81% 0.00 in 0.00 W/m2
23:20 52.7 °F 47.0 °F 30.03 in ENE 4.6 mph 4.6 mph 81% 0.00 in 0.00 W/m2
23:25 52.6 °F 47.3 °F 30.03 in NE 4.6 mph 6.9 mph 82% 0.00 in 0.00 W/m2
23:30 52.4 °F 47.1 °F 30.03 in ENE 4.6 mph 8.1 mph 82% 0.00 in 0.00 W/m2
23:36 52.5 °F 47.2 °F 30.03 in NE 6.9 mph 8.1 mph 82% 0.00 in 0.00 W/m2
23:41 52.5 °F 47.2 °F 30.03 in Calm   5.8 mph 82% 0.00 in 0.00 W/m2
23:46 52.6 °F 47.6 °F 30.03 in ENE 9.2 mph 12.6 mph 83% 0.00 in 0.00 W/m2
23:51 52.6 °F 47.6 °F 30.03 in NE 2.3 mph 4.6 mph 83% 0.00 in 0.00 W/m2
23:56 52.7 °F 47.7 °F 30.04 in NE 5.8 mph 12.6 mph 83% 0.00 in 0.00 W/m2
Juneau County Weather
Compliments of Weather Underground - 4 mb